createdAt,value
2023-05-01T00:00:56.322Z,0.71
2023-05-01T00:03:58.779Z,0.61
2023-05-01T00:07:00.769Z,0.56
2023-05-01T00:10:02.385Z,0.50
2023-05-01T00:13:04.539Z,0.45
2023-05-01T00:16:10.123Z,0.45
2023-05-01T00:19:12.652Z,0.50
2023-05-01T00:22:14.430Z,0.53
2023-05-01T00:25:16.187Z,0.53
2023-05-01T00:28:20.901Z,0.56
2023-05-01T00:31:24.853Z,0.48
2023-05-01T00:34:30.518Z,0.35
2023-05-01T00:37:32.258Z,0.29
2023-05-01T00:40:42.032Z,0.25
2023-05-01T00:43:43.678Z,0.26
2023-05-01T00:46:45.290Z,0.27
2023-05-01T00:49:46.958Z,0.28
2023-05-01T00:52:48.663Z,0.29
2023-05-01T00:55:50.223Z,0.27
2023-05-01T00:58:51.848Z,0.23
2023-05-01T01:01:55.643Z,0.20
2023-05-01T01:04:58.556Z,0.21
2023-05-01T01:08:15.883Z,0.21
2023-05-01T01:11:42.015Z,0.23
2023-05-01T01:15:06.710Z,0.22
2023-05-01T01:18:10.188Z,0.20
2023-05-01T01:21:13.130Z,0.20
2023-05-01T01:24:33.742Z,0.18
2023-05-01T01:28:13.942Z,0.18
2023-05-01T01:31:22.208Z,0.19
2023-05-01T01:34:36.492Z,0.19
2023-05-01T01:37:47.328Z,0.18
2023-05-01T01:41:11.470Z,0.17
2023-05-01T01:44:19.522Z,0.16
2023-05-01T01:47:22.502Z,0.05
2023-05-01T01:50:26.481Z,-0.07
2023-05-01T01:53:30.105Z,-0.12
2023-05-01T01:56:33.328Z,-0.16
2023-05-01T01:59:35.371Z,-0.26
2023-05-01T02:02:38.777Z,-0.36
2023-05-01T02:05:42.399Z,-0.43
2023-05-01T02:08:44.617Z,-0.52
2023-05-01T02:11:46.831Z,-0.59
2023-05-01T02:14:48.807Z,-0.64
2023-05-01T02:17:51.333Z,-0.71
2023-05-01T02:20:53.556Z,-0.77
2023-05-01T02:23:55.556Z,-0.81
2023-05-01T02:27:03.137Z,-0.85
2023-05-01T02:30:05.382Z,-0.88
2023-05-01T02:33:07.985Z,-0.90
2023-05-01T02:36:09.723Z,-0.92
2023-05-01T02:39:11.260Z,-0.97
2023-05-01T02:42:13.358Z,-1.01
2023-05-01T02:45:20.635Z,-1.04
2023-05-01T02:48:25.770Z,-1.10
2023-05-01T02:51:28.212Z,-1.14
2023-05-01T02:54:31.202Z,-1.12
2023-05-01T02:57:33.433Z,-1.16
2023-05-01T03:00:35.047Z,-1.19
2023-05-01T03:03:37.010Z,-1.21
2023-05-01T03:06:38.899Z,-1.21
2023-05-01T03:09:40.485Z,-1.24
2023-05-01T03:12:42.144Z,-1.28
2023-05-01T03:15:44.485Z,-1.28
2023-05-01T03:18:46.112Z,-1.31
2023-05-01T03:21:47.714Z,-1.31
2023-05-01T03:24:49.321Z,-1.30
2023-05-01T03:27:52.144Z,-1.32
2023-05-01T03:30:55.356Z,-1.33
2023-05-01T03:33:56.983Z,-1.30
2023-05-01T03:36:58.787Z,-1.23
2023-05-01T03:40:00.341Z,-1.16
2023-05-01T03:43:01.981Z,-1.05
2023-05-01T03:46:03.595Z,-0.95
2023-05-01T03:49:05.240Z,-0.82
2023-05-01T03:52:06.881Z,-0.72
2023-05-01T03:55:09.018Z,-0.65
2023-05-01T03:58:10.831Z,-0.59
2023-05-01T04:01:12.389Z,-0.55
2023-05-01T04:04:14.199Z,-0.52
2023-05-01T04:07:15.982Z,-0.55
2023-05-01T04:10:17.664Z,-0.71
2023-05-01T04:13:19.390Z,-0.72
2023-05-01T04:16:20.980Z,-0.74
2023-05-01T04:19:22.646Z,-0.71
2023-05-01T04:22:24.276Z,-0.65
2023-05-01T04:25:26.182Z,-0.58
2023-05-01T04:28:27.866Z,-0.38
2023-05-01T04:31:29.552Z,0.04
2023-05-01T04:34:31.190Z,0.50
2023-05-01T04:37:32.861Z,0.96
2023-05-01T04:40:34.652Z,1.45
2023-05-01T04:43:36.265Z,2.03
2023-05-01T04:46:37.961Z,2.63
2023-05-01T04:49:39.691Z,3.21
2023-05-01T04:52:41.243Z,3.78
2023-05-01T04:55:42.914Z,4.34
2023-05-01T04:58:44.897Z,4.78
2023-05-01T05:01:46.595Z,5.03
2023-05-01T05:04:48.807Z,5.37
2023-05-01T05:07:50.572Z,5.79
2023-05-01T05:10:57.549Z,6.17
2023-05-01T05:13:59.241Z,6.62
2023-05-01T05:17:00.995Z,7.03
2023-05-01T05:20:02.647Z,7.45
2023-05-01T05:23:04.275Z,7.90
2023-05-01T05:26:05.954Z,8.26
2023-05-01T05:29:07.730Z,8.64
2023-05-01T05:32:09.627Z,8.99
2023-05-01T05:35:11.351Z,9.32
2023-05-01T05:38:13.089Z,9.69
2023-05-01T05:41:14.776Z,10.01
2023-05-01T05:44:16.659Z,10.29
2023-05-01T05:47:18.360Z,10.56
2023-05-01T05:50:20.179Z,10.87
2023-05-01T05:53:24.973Z,10.95
2023-05-01T05:56:27.463Z,11.26
2023-05-01T05:59:29.137Z,11.52
2023-05-01T06:02:31.452Z,11.43
2023-05-01T06:05:33.452Z,11.13
2023-05-01T06:08:35.263Z,11.10
2023-05-01T06:11:36.851Z,11.35
2023-05-01T06:14:38.539Z,11.65
2023-05-01T06:17:40.152Z,11.42
2023-05-01T06:20:41.828Z,11.21
2023-05-01T06:23:43.548Z,11.54
2023-05-01T06:26:45.175Z,12.09
2023-05-01T06:29:46.788Z,12.68
2023-05-01T06:32:48.792Z,13.08
2023-05-01T06:35:50.878Z,13.45
2023-05-01T06:38:52.563Z,13.87
2023-05-01T06:41:54.263Z,14.30
2023-05-01T06:44:55.896Z,14.62
2023-05-01T06:47:57.573Z,14.79
2023-05-01T06:50:59.451Z,14.85
2023-05-01T06:54:01.035Z,15.00
2023-05-01T06:57:02.685Z,14.79
2023-05-01T07:00:05.020Z,14.82
2023-05-01T07:03:06.893Z,14.64
2023-05-01T07:06:08.609Z,14.61
2023-05-01T07:09:10.478Z,15.08
2023-05-01T07:12:12.117Z,15.63
2023-05-01T07:15:13.720Z,15.27
2023-05-01T07:18:15.357Z,15.34
2023-05-01T07:21:16.957Z,15.96
2023-05-01T07:24:18.509Z,16.48
2023-05-01T07:27:20.619Z,16.82
2023-05-01T07:30:22.265Z,16.73
2023-05-01T07:33:24.219Z,16.67
2023-05-01T07:36:25.949Z,16.64
2023-05-01T07:39:27.588Z,16.28
2023-05-01T07:42:29.307Z,16.30
2023-05-01T07:45:30.964Z,15.75
2023-05-01T07:48:32.720Z,15.94
2023-05-01T07:51:34.424Z,16.08
2023-05-01T07:54:36.018Z,15.81
2023-05-01T07:57:37.660Z,15.69
2023-05-01T08:00:39.264Z,15.90
2023-05-01T08:03:40.971Z,16.18
2023-05-01T08:06:42.749Z,15.89
2023-05-01T08:09:45.832Z,15.85
2023-05-01T08:12:47.506Z,15.93
2023-05-01T08:15:49.283Z,15.58
2023-05-01T08:18:50.901Z,15.60
2023-05-01T08:21:52.705Z,16.13
2023-05-01T08:24:54.333Z,16.56
2023-05-01T08:27:55.921Z,16.80
2023-05-01T08:30:57.571Z,16.82
2023-05-01T08:33:59.232Z,17.07
2023-05-01T08:37:00.913Z,17.26
2023-05-01T08:40:02.510Z,17.57
2023-05-01T08:43:04.747Z,17.32
2023-05-01T08:46:07.368Z,18.11
2023-05-01T08:49:09.541Z,18.70
2023-05-01T08:52:12.581Z,18.39
2023-05-01T08:55:15.491Z,18.25
2023-05-01T08:58:18.231Z,18.46
2023-05-01T09:01:20.566Z,18.46
2023-05-01T09:04:22.321Z,18.20
2023-05-01T09:07:24.678Z,18.13
2023-05-01T09:10:26.562Z,18.23
2023-05-01T09:13:28.500Z,18.81
2023-05-01T09:16:30.172Z,18.89
2023-05-01T09:19:31.859Z,18.85
2023-05-01T09:22:34.201Z,18.82
2023-05-01T09:25:35.917Z,18.96
2023-05-01T09:28:46.219Z,19.09
2023-05-01T09:31:47.911Z,19.26
2023-05-01T09:34:50.658Z,19.17
2023-05-01T09:37:57.167Z,19.25
2023-05-01T09:41:04.735Z,19.45
2023-05-01T09:44:17.984Z,19.88
2023-05-01T09:47:22.772Z,19.49
2023-05-01T09:50:35.062Z,19.92
2023-05-01T09:53:40.592Z,20.49
2023-05-01T09:56:47.152Z,20.47
2023-05-01T10:00:02.416Z,20.52
2023-05-01T10:03:13.811Z,21.45
2023-05-01T10:06:26.573Z,22.00
2023-05-01T10:09:29.499Z,21.04
2023-05-01T10:12:31.121Z,20.92
2023-05-01T10:15:38.676Z,21.85
2023-05-01T10:18:40.495Z,22.97
2023-05-01T10:21:42.128Z,23.86
2023-05-01T10:24:44.368Z,23.48
2023-05-01T10:27:46.364Z,23.07
2023-05-01T10:30:49.043Z,22.87
2023-05-01T10:33:50.617Z,23.00
2023-05-01T10:37:04.204Z,22.47
2023-05-01T10:40:40.438Z,21.85
2023-05-01T10:43:43.129Z,22.15
2023-05-01T10:46:44.778Z,21.76
2023-05-01T10:50:05.051Z,21.72
2023-05-01T10:53:12.582Z,21.89
2023-05-01T10:56:34.401Z,22.26
2023-05-01T11:00:04.215Z,22.22
2023-05-01T11:03:21.416Z,22.11
2023-05-01T11:06:23.604Z,22.48
2023-05-01T11:09:41.630Z,22.28
2023-05-01T11:12:46.376Z,22.22
2023-05-01T11:15:48.065Z,22.96
2023-05-01T11:18:49.709Z,23.13
2023-05-01T11:21:51.605Z,23.08
2023-05-01T11:24:53.216Z,22.53
2023-05-01T11:27:56.960Z,22.87
2023-05-01T11:30:59.644Z,23.70
2023-05-01T11:34:02.495Z,23.35
2023-05-01T11:37:04.069Z,23.12
2023-05-01T11:40:19.132Z,23.25
2023-05-01T11:43:20.924Z,22.99
2023-05-01T11:46:30.416Z,23.08
2023-05-01T11:49:32.165Z,23.58
2023-05-01T11:52:48.732Z,23.78
2023-05-01T11:55:50.406Z,24.07
2023-05-01T11:58:53.518Z,24.38
2023-05-01T12:01:55.535Z,24.45
2023-05-01T12:04:57.363Z,24.38
2023-05-01T12:08:11.525Z,25.20
2023-05-01T12:11:13.423Z,25.97
2023-05-01T12:14:15.685Z,26.61
2023-05-01T12:17:17.412Z,26.70
2023-05-01T12:20:34.696Z,26.06
2023-05-01T12:23:36.761Z,24.93
2023-05-01T12:26:38.584Z,24.16
2023-05-01T12:29:41.151Z,23.59
2023-05-01T12:32:42.753Z,23.28
2023-05-01T12:35:46.285Z,24.09
2023-05-01T12:39:05.364Z,24.93
2023-05-01T12:42:13.968Z,25.69
2023-05-01T12:45:15.714Z,26.36
2023-05-01T12:48:17.531Z,26.85
2023-05-01T12:51:20.471Z,26.66
2023-05-01T12:54:24.676Z,25.64
2023-05-01T12:57:26.270Z,24.90
2023-05-01T13:00:28.347Z,24.97
2023-05-01T13:03:31.352Z,24.68
2023-05-01T13:06:33.437Z,24.53
2023-05-01T13:09:35.105Z,23.97
2023-05-01T13:12:44.067Z,23.54
2023-05-01T13:15:45.797Z,23.58
2023-05-01T13:18:51.792Z,24.05
2023-05-01T13:21:53.765Z,24.26
2023-05-01T13:24:55.506Z,24.34
2023-05-01T13:27:57.125Z,24.24
2023-05-01T13:30:59.007Z,24.79
2023-05-01T13:34:01.101Z,25.26
2023-05-01T13:37:03.704Z,25.91
2023-05-01T13:40:06.425Z,25.86
2023-05-01T13:43:14.144Z,26.34
2023-05-01T13:46:17.334Z,26.45
2023-05-01T13:49:21.397Z,25.66
2023-05-01T13:52:23.134Z,25.32
2023-05-01T13:55:24.926Z,26.18
2023-05-01T13:58:28.950Z,26.43
2023-05-01T14:01:30.743Z,26.80
2023-05-01T14:04:35.453Z,26.61
2023-05-01T14:07:44.450Z,25.11
2023-05-01T14:10:46.064Z,25.09
2023-05-01T14:13:47.966Z,25.72
2023-05-01T14:16:51.108Z,25.76
2023-05-01T14:19:52.816Z,26.38
2023-05-01T14:22:54.419Z,27.22
2023-05-01T14:25:56.095Z,27.53
2023-05-01T14:28:57.764Z,28.55
2023-05-01T14:32:03.945Z,29.34
2023-05-01T14:35:09.505Z,28.58
2023-05-01T14:38:13.620Z,28.74
2023-05-01T14:41:17.341Z,28.13
2023-05-01T14:44:19.714Z,28.71
2023-05-01T14:47:21.389Z,29.80
2023-05-01T14:50:24.578Z,30.42
2023-05-01T14:53:26.480Z,30.74
2023-05-01T14:56:28.158Z,29.57
2023-05-01T14:59:29.868Z,28.22
2023-05-01T15:02:31.523Z,27.99
2023-05-01T15:05:33.183Z,28.45
2023-05-01T15:08:35.050Z,28.52
2023-05-01T15:11:36.873Z,28.61
2023-05-01T15:14:38.578Z,28.43
2023-05-01T15:17:40.220Z,27.86
2023-05-01T15:20:41.929Z,26.80
2023-05-01T15:23:43.555Z,26.08
2023-05-01T15:26:45.636Z,25.19
2023-05-01T15:29:47.292Z,25.05
2023-05-01T15:32:48.955Z,24.16
2023-05-01T15:35:51.136Z,23.36
2023-05-01T15:38:52.873Z,23.11
2023-05-01T15:41:54.536Z,23.10
2023-05-01T15:44:56.375Z,22.61
2023-05-01T15:47:58.415Z,21.51
2023-05-01T15:51:00.177Z,20.75
2023-05-01T15:54:01.997Z,20.31
2023-05-01T15:57:03.674Z,20.13
2023-05-01T16:00:06.430Z,19.87
2023-05-01T16:03:08.702Z,19.70
2023-05-01T16:06:12.057Z,19.47
2023-05-01T16:09:14.345Z,19.45
2023-05-01T16:12:15.982Z,19.33
2023-05-01T16:15:18.112Z,19.05
2023-05-01T16:18:23.133Z,18.83
2023-05-01T16:21:26.055Z,18.60
2023-05-01T16:24:27.764Z,18.48
2023-05-01T16:27:29.424Z,18.23
2023-05-01T16:30:31.038Z,17.86
2023-05-01T16:33:33.836Z,17.55
2023-05-01T16:36:35.499Z,17.32
2023-05-01T16:39:37.190Z,17.07
2023-05-01T16:42:38.831Z,16.99
2023-05-01T16:45:40.599Z,16.97
2023-05-01T16:48:42.745Z,16.86
2023-05-01T16:51:44.384Z,16.73
2023-05-01T16:54:46.047Z,16.66
2023-05-01T16:57:47.918Z,16.64
2023-05-01T17:00:49.553Z,16.65
2023-05-01T17:03:51.230Z,16.69
2023-05-01T17:06:53.238Z,16.77
2023-05-01T17:09:55.341Z,16.78
2023-05-01T17:12:57.009Z,16.85
2023-05-01T17:15:58.686Z,17.51
2023-05-01T17:19:00.302Z,18.42
2023-05-01T17:22:02.013Z,18.51
2023-05-01T17:25:03.821Z,17.91
2023-05-01T17:28:05.770Z,17.31
2023-05-01T17:31:07.560Z,16.83
2023-05-01T17:34:09.318Z,16.38
2023-05-01T17:37:11.044Z,16.01
2023-05-01T17:40:13.027Z,15.67
2023-05-01T17:43:14.629Z,15.33
2023-05-01T17:46:16.302Z,15.01
2023-05-01T17:49:18.012Z,14.66
2023-05-01T17:52:19.654Z,14.34
2023-05-01T17:55:21.300Z,14.02
2023-05-01T17:58:22.890Z,13.71
2023-05-01T18:01:24.839Z,13.52
2023-05-01T18:04:26.513Z,13.41
2023-05-01T18:07:28.173Z,13.29
2023-05-01T18:10:30.528Z,13.16
2023-05-01T18:13:32.240Z,13.01
2023-05-01T18:16:33.850Z,12.85
2023-05-01T18:19:35.690Z,12.72
2023-05-01T18:22:37.310Z,12.58
2023-05-01T18:25:39.105Z,12.41
2023-05-01T18:28:40.815Z,12.26
2023-05-01T18:31:42.434Z,12.12
2023-05-01T18:34:44.127Z,11.98
2023-05-01T18:37:45.972Z,11.86
2023-05-01T18:40:47.912Z,11.76
2023-05-01T18:43:51.812Z,11.65
2023-05-01T18:46:55.318Z,11.56
2023-05-01T18:49:57.052Z,11.48
2023-05-01T18:52:59.127Z,11.38
2023-05-01T18:56:01.084Z,11.28
2023-05-01T18:59:02.905Z,11.22
2023-05-01T19:02:04.615Z,11.15
2023-05-01T19:05:07.624Z,11.03
2023-05-01T19:08:09.524Z,10.78
2023-05-01T19:11:11.193Z,10.53
2023-05-01T19:14:13.165Z,10.33
2023-05-01T19:17:14.960Z,10.18
2023-05-01T19:20:16.645Z,10.01
2023-05-01T19:23:18.240Z,9.87
2023-05-01T19:26:20.167Z,9.74
2023-05-01T19:29:21.812Z,9.63
2023-05-01T19:32:23.703Z,9.56
2023-05-01T19:35:25.836Z,9.46
2023-05-01T19:38:27.760Z,9.33
2023-05-01T19:41:29.390Z,9.19
2023-05-01T19:44:33.622Z,9.23
2023-05-01T19:47:35.317Z,9.19
2023-05-01T19:50:36.921Z,9.20
2023-05-01T19:53:38.693Z,9.17
2023-05-01T19:56:40.550Z,9.13
2023-05-01T19:59:42.161Z,9.11
2023-05-01T20:02:43.954Z,9.10
2023-05-01T20:05:45.639Z,9.08
2023-05-01T20:08:47.295Z,9.03
2023-05-01T20:11:48.955Z,8.97
2023-05-01T20:14:50.607Z,8.95
2023-05-01T20:17:52.450Z,8.98
2023-05-01T20:20:54.195Z,9.00
2023-05-01T20:23:55.883Z,8.97
2023-05-01T20:26:58.005Z,8.98
2023-05-01T20:29:59.882Z,8.98
2023-05-01T20:33:01.839Z,8.95
2023-05-01T20:36:04.890Z,9.00
2023-05-01T20:39:06.659Z,9.04
2023-05-01T20:42:08.670Z,9.05
2023-05-01T20:45:10.312Z,9.04
2023-05-01T20:48:12.086Z,9.03
2023-05-01T20:51:14.698Z,9.00
2023-05-01T20:54:16.349Z,8.99
2023-05-01T20:57:18.120Z,8.95
2023-05-01T21:00:20.115Z,8.91
2023-05-01T21:03:21.996Z,8.87
2023-05-01T21:06:23.989Z,8.82
2023-05-01T21:09:25.919Z,8.76
2023-05-01T21:12:28.732Z,8.67
2023-05-01T21:15:30.379Z,8.59
2023-05-01T21:18:33.475Z,8.53
2023-05-01T21:21:35.983Z,8.44
2023-05-01T21:24:39.726Z,8.34
2023-05-01T21:27:41.350Z,8.28
2023-05-01T21:30:43.056Z,8.19
2023-05-01T21:33:44.740Z,8.10
2023-05-01T21:36:46.313Z,8.03
2023-05-01T21:39:47.860Z,7.97
2023-05-01T21:42:49.767Z,7.93
2023-05-01T21:45:51.868Z,7.83
2023-05-01T21:48:53.779Z,7.72
2023-05-01T21:51:59.347Z,7.66
2023-05-01T21:55:05.235Z,7.62
2023-05-01T21:58:06.922Z,7.57
2023-05-01T22:01:08.584Z,7.54
2023-05-01T22:04:14.692Z,7.47
2023-05-01T22:07:16.409Z,7.39
2023-05-01T22:10:18.104Z,7.30
2023-05-01T22:13:19.681Z,7.20
2023-05-01T22:16:21.310Z,7.09
2023-05-01T22:19:22.795Z,7.00
2023-05-01T22:22:24.606Z,6.90
2023-05-01T22:25:26.207Z,6.75
2023-05-01T22:28:27.721Z,6.59
2023-05-01T22:31:29.454Z,6.49
2023-05-01T22:34:31.046Z,6.41
2023-05-01T22:37:32.547Z,6.32
2023-05-01T22:40:34.133Z,6.27
2023-05-01T22:43:35.726Z,6.25
2023-05-01T22:46:37.543Z,6.25
2023-05-01T22:49:39.247Z,6.20
2023-05-01T22:52:40.872Z,6.18
2023-05-01T22:55:42.349Z,6.17
2023-05-01T22:58:43.968Z,6.10
2023-05-01T23:01:45.748Z,5.99
2023-05-01T23:04:47.407Z,5.91
2023-05-01T23:07:48.965Z,5.84
2023-05-01T23:10:50.695Z,5.75
2023-05-01T23:13:52.307Z,5.63
2023-05-01T23:16:53.968Z,5.48
2023-05-01T23:19:55.575Z,5.32
2023-05-01T23:22:57.554Z,5.21
2023-05-01T23:25:59.295Z,5.08
2023-05-01T23:29:01.135Z,5.02
2023-05-01T23:32:02.842Z,4.99
2023-05-01T23:35:14.676Z,4.95
2023-05-01T23:38:16.383Z,4.95
2023-05-01T23:41:18.038Z,4.90
2023-05-01T23:44:19.554Z,4.70
2023-05-01T23:47:21.628Z,4.55
2023-05-01T23:50:23.228Z,4.44
2023-05-01T23:53:24.735Z,4.38
2023-05-01T23:56:26.406Z,4.30
2023-05-01T23:59:27.963Z,4.25
